createdAt,value
2019-03-23T00:00:32.645Z,147.00
2019-03-23T00:01:32.637Z,148.50
2019-03-23T00:02:32.619Z,145.20
2019-03-23T00:03:32.637Z,151.90
2019-03-23T00:04:32.758Z,137.10
2019-03-23T00:05:32.616Z,142.50
2019-03-23T00:06:32.579Z,145.00
2019-03-23T00:07:32.574Z,147.10
2019-03-23T00:08:32.560Z,138.80
2019-03-23T00:09:32.571Z,141.20
2019-03-23T00:10:32.533Z,139.50
2019-03-23T00:11:32.523Z,141.10
2019-03-23T00:12:32.510Z,138.10
2019-03-23T00:13:32.509Z,139.90
2019-03-23T00:14:32.591Z,139.50
2019-03-23T00:15:32.496Z,132.50
2019-03-23T00:16:32.471Z,139.40
2019-03-23T00:17:32.463Z,138.30
2019-03-23T00:18:32.455Z,138.60
2019-03-23T00:19:32.452Z,143.30
2019-03-23T00:20:32.427Z,130.10
2019-03-23T00:21:32.406Z,128.40
2019-03-23T00:22:32.398Z,132.80
2019-03-23T00:23:32.385Z,140.10
2019-03-23T00:24:32.417Z,135.90
2019-03-23T00:25:32.361Z,134.90
2019-03-23T00:26:32.366Z,131.10
2019-03-23T00:27:32.519Z,140.20
2019-03-23T00:28:32.339Z,120.60
2019-03-23T00:29:32.341Z,126.00
2019-03-23T00:30:32.319Z,122.10
2019-03-23T00:31:32.297Z,126.40
2019-03-23T00:32:32.301Z,116.70
2019-03-23T00:33:32.276Z,108.90
2019-03-23T00:34:32.280Z,108.30
2019-03-23T00:35:32.249Z,105.20
2019-03-23T00:36:40.998Z,101.80
2019-03-23T00:37:33.226Z,102.50
2019-03-23T00:38:32.231Z,99.70
2019-03-23T00:39:32.238Z,95.60
2019-03-23T00:40:32.194Z,95.40
2019-03-23T00:41:32.195Z,90.80
2019-03-23T00:42:32.178Z,98.90
2019-03-23T00:43:32.178Z,103.80
2019-03-23T00:44:32.178Z,91.70
2019-03-23T00:45:32.156Z,92.40
2019-03-23T00:46:32.127Z,102.60
2019-03-23T00:47:32.140Z,106.90
2019-03-23T00:48:32.108Z,88.20
2019-03-23T00:49:32.126Z,98.30
2019-03-23T00:50:32.094Z,103.40
2019-03-23T00:51:32.070Z,114.50
2019-03-23T00:52:32.069Z,117.70
2019-03-23T00:53:32.056Z,110.70
2019-03-23T00:54:32.047Z,118.80
2019-03-23T00:55:32.054Z,128.00
2019-03-23T00:56:32.010Z,126.50
2019-03-23T00:57:32.003Z,110.40
2019-03-23T00:58:32.001Z,106.10
2019-03-23T00:59:31.982Z,106.70
2019-03-23T01:00:31.993Z,118.50
2019-03-23T01:01:31.984Z,117.20
2019-03-23T01:02:31.947Z,103.70
2019-03-23T01:03:31.936Z,111.00
2019-03-23T01:04:31.940Z,121.20
2019-03-23T01:05:32.017Z,145.00
2019-03-23T01:06:31.916Z,108.40
2019-03-23T01:07:31.895Z,101.40
2019-03-23T01:08:31.884Z,101.80
2019-03-23T01:09:31.868Z,103.90
2019-03-23T01:10:31.879Z,101.00
2019-03-23T01:11:31.865Z,88.30
2019-03-23T01:12:31.848Z,85.90
2019-03-23T01:13:31.870Z,83.90
2019-03-23T01:14:31.813Z,79.40
2019-03-23T01:15:32.073Z,83.10
2019-03-23T01:16:31.807Z,80.90
2019-03-23T01:17:31.797Z,83.60
2019-03-23T01:18:31.762Z,82.50
2019-03-23T01:19:31.771Z,80.60
2019-03-23T01:20:31.770Z,81.00
2019-03-23T01:21:31.735Z,82.00
2019-03-23T01:22:31.723Z,82.20
2019-03-23T01:23:31.726Z,85.40
2019-03-23T01:24:31.706Z,81.10
2019-03-23T01:25:31.709Z,83.70
2019-03-23T01:26:31.676Z,79.70
2019-03-23T01:27:31.679Z,78.20
2019-03-23T01:28:31.660Z,78.60
2019-03-23T01:29:31.664Z,74.90
2019-03-23T01:30:31.661Z,76.80
2019-03-23T01:31:31.650Z,70.70
2019-03-23T01:32:31.609Z,79.10
2019-03-23T01:33:31.594Z,73.80
2019-03-23T01:34:31.723Z,75.30
2019-03-23T01:35:31.603Z,76.60
2019-03-23T01:36:31.568Z,73.80
2019-03-23T01:37:31.549Z,72.90
2019-03-23T01:38:31.545Z,72.60
2019-03-23T01:39:31.535Z,66.00
2019-03-23T01:40:31.550Z,69.10
2019-03-23T01:41:31.507Z,71.30
2019-03-23T01:42:31.501Z,63.70
2019-03-23T01:43:31.490Z,67.60
2019-03-23T01:44:31.479Z,62.80
2019-03-23T01:45:31.487Z,60.10
2019-03-23T01:46:31.463Z,59.10
2019-03-23T01:47:31.444Z,57.40
2019-03-23T01:48:31.430Z,60.10
2019-03-23T01:49:31.415Z,57.20
2019-03-23T01:50:31.442Z,64.40
2019-03-23T01:51:31.399Z,64.70
2019-03-23T01:52:31.403Z,60.10
2019-03-23T01:53:31.377Z,65.20
2019-03-23T01:54:31.363Z,61.60
2019-03-23T01:55:31.563Z,58.50
2019-03-23T01:56:31.338Z,63.70
2019-03-23T01:57:31.339Z,68.70
2019-03-23T01:58:31.316Z,69.00
2019-03-23T01:59:31.302Z,72.80
2019-03-23T02:00:31.317Z,71.60
2019-03-23T02:01:31.288Z,71.00
2019-03-23T02:02:31.272Z,67.20
2019-03-23T02:03:31.273Z,66.70
2019-03-23T02:04:31.244Z,71.60
2019-03-23T02:05:31.293Z,68.00
2019-03-23T02:06:31.229Z,69.30
2019-03-23T02:07:31.238Z,69.00
2019-03-23T02:08:31.208Z,70.60
2019-03-23T02:09:31.217Z,71.20
2019-03-23T02:10:31.254Z,69.10
2019-03-23T02:11:31.172Z,71.80
2019-03-23T02:12:31.162Z,69.90
2019-03-23T02:13:31.145Z,71.10
2019-03-23T02:14:31.139Z,81.90
2019-03-23T02:15:31.158Z,79.20
2019-03-23T02:16:31.114Z,79.70
2019-03-23T02:17:31.106Z,83.80
2019-03-23T02:18:31.099Z,84.50
2019-03-23T02:19:31.083Z,88.90
2019-03-23T02:20:31.087Z,84.50
2019-03-23T02:21:31.148Z,82.00
2019-03-23T02:22:31.048Z,84.80
2019-03-23T02:23:31.039Z,79.00
2019-03-23T02:24:31.035Z,78.20
2019-03-23T02:25:31.042Z,72.20
2019-03-23T02:26:31.053Z,73.20
2019-03-23T02:27:30.996Z,74.20
2019-03-23T02:28:30.981Z,77.30
2019-03-23T02:29:30.972Z,75.20
2019-03-23T02:30:31.010Z,74.90
2019-03-23T02:31:32.061Z,75.50
2019-03-23T02:32:31.023Z,70.10
2019-03-23T02:33:30.924Z,71.50
2019-03-23T02:34:30.919Z,71.60
2019-03-23T02:35:30.945Z,71.40
2019-03-23T02:36:30.914Z,69.90
2019-03-23T02:37:30.884Z,78.60
2019-03-23T02:38:30.870Z,79.70
2019-03-23T02:39:30.870Z,74.60
2019-03-23T02:40:30.849Z,85.70
2019-03-23T02:41:30.869Z,87.60
2019-03-23T02:42:30.822Z,91.80
2019-03-23T02:43:30.839Z,86.40
2019-03-23T02:44:30.813Z,77.40
2019-03-23T02:45:30.823Z,100.00
2019-03-23T02:46:30.816Z,106.20
2019-03-23T02:47:30.769Z,137.80
2019-03-23T02:48:30.761Z,128.00
2019-03-23T02:49:30.753Z,129.50
2019-03-23T02:50:30.773Z,174.40
2019-03-23T02:51:30.789Z,144.10
2019-03-23T02:52:30.729Z,193.90
2019-03-23T02:53:30.708Z,172.20
2019-03-23T02:54:30.686Z,175.20
2019-03-23T02:55:30.680Z,147.60
2019-03-23T02:56:30.695Z,149.90
2019-03-23T02:57:30.666Z,197.90
2019-03-23T02:58:30.643Z,162.50
2019-03-23T02:59:30.638Z,187.70
2019-03-23T03:00:30.629Z,185.00
2019-03-23T03:01:30.849Z,214.50
2019-03-23T03:02:30.602Z,187.90
2019-03-23T03:03:30.604Z,241.50
2019-03-23T03:04:30.577Z,228.40
2019-03-23T03:05:30.569Z,203.60
2019-03-23T03:06:30.571Z,159.20
2019-03-23T03:07:41.171Z,189.00
2019-03-23T03:08:31.528Z,195.20
2019-03-23T03:09:30.527Z,152.60
2019-03-23T03:10:30.515Z,210.20
2019-03-23T03:11:30.541Z,238.80
2019-03-23T03:12:30.497Z,191.00
2019-03-23T03:13:30.481Z,172.00
2019-03-23T03:14:30.621Z,224.60
2019-03-23T03:15:30.454Z,200.60
2019-03-23T03:16:30.441Z,194.30
2019-03-23T03:17:30.449Z,173.20
2019-03-23T03:18:30.426Z,193.00
2019-03-23T03:19:30.408Z,428.40
2019-03-23T03:20:30.408Z,168.30
2019-03-23T03:21:30.382Z,172.00
2019-03-23T03:22:30.423Z,203.80
2019-03-23T03:23:30.395Z,163.40
2019-03-23T03:24:30.348Z,179.00
2019-03-23T03:25:30.343Z,211.00
2019-03-23T03:26:30.340Z,206.50
2019-03-23T03:27:30.338Z,221.70
2019-03-23T03:28:30.304Z,185.50
2019-03-23T03:29:30.299Z,182.10
2019-03-23T03:30:30.285Z,165.70
2019-03-23T03:31:30.284Z,193.10
2019-03-23T03:32:30.313Z,242.10
2019-03-23T03:33:30.261Z,173.70
2019-03-23T03:34:30.245Z,221.60
2019-03-23T03:35:30.230Z,201.90
2019-03-23T03:36:30.378Z,168.00
2019-03-23T03:37:30.255Z,180.90
2019-03-23T03:38:30.199Z,210.30
2019-03-23T03:39:30.186Z,178.70
2019-03-23T03:40:30.180Z,172.20
2019-03-23T03:41:30.176Z,401.00
2019-03-23T03:42:30.180Z,224.10
2019-03-23T03:43:30.158Z,223.30
2019-03-23T03:44:30.231Z,165.80
2019-03-23T03:45:30.141Z,206.00
2019-03-23T03:46:30.123Z,174.90
2019-03-23T03:47:30.134Z,203.70
2019-03-23T03:48:30.083Z,234.00
2019-03-23T03:49:30.070Z,229.10
2019-03-23T03:50:30.064Z,173.00
2019-03-23T03:51:30.056Z,182.00
2019-03-23T03:52:30.038Z,170.70
2019-03-23T03:53:30.048Z,252.40
2019-03-23T03:54:30.008Z,346.60
2019-03-23T03:55:30.004Z,186.70
2019-03-23T03:56:29.999Z,253.40
2019-03-23T03:57:29.980Z,198.30
2019-03-23T03:58:29.986Z,208.10
2019-03-23T03:59:29.960Z,183.10
2019-03-23T04:00:29.952Z,196.90
2019-03-23T04:01:29.931Z,204.40
2019-03-23T04:02:29.927Z,187.80
2019-03-23T04:03:29.934Z,182.70
2019-03-23T04:04:29.900Z,190.30
2019-03-23T04:05:29.893Z,191.60
2019-03-23T04:06:29.877Z,175.70
2019-03-23T04:07:29.868Z,245.70
2019-03-23T04:08:29.981Z,256.60
2019-03-23T04:09:29.847Z,413.60
2019-03-23T04:10:29.829Z,179.30
2019-03-23T04:11:29.830Z,229.00
2019-03-23T04:12:29.807Z,303.20
2019-03-23T04:13:29.818Z,190.40
2019-03-23T04:14:29.790Z,352.70
2019-03-23T04:15:29.783Z,236.40
2019-03-23T04:16:29.768Z,291.30
2019-03-23T04:17:29.768Z,262.90
2019-03-23T04:18:29.770Z,175.30
2019-03-23T04:19:29.730Z,414.30
2019-03-23T04:20:29.731Z,238.90
2019-03-23T04:21:29.723Z,213.70
2019-03-23T04:22:29.719Z,184.10
2019-03-23T04:23:29.714Z,195.20
2019-03-23T04:24:29.675Z,180.60
2019-03-23T04:25:29.679Z,196.20
2019-03-23T04:26:29.689Z,235.30
2019-03-23T04:27:29.647Z,183.00
2019-03-23T04:28:29.665Z,242.00
2019-03-23T04:29:29.615Z,206.00
2019-03-23T04:30:29.615Z,202.40
2019-03-23T04:31:29.597Z,180.60
2019-03-23T04:32:29.587Z,198.10
2019-03-23T04:33:29.600Z,250.90
2019-03-23T04:34:29.570Z,224.60
2019-03-23T04:35:29.554Z,176.90
2019-03-23T04:36:29.554Z,163.60
2019-03-23T04:37:29.533Z,220.20
2019-03-23T04:38:29.537Z,253.80
2019-03-23T04:39:29.533Z,262.40
2019-03-23T04:40:29.509Z,301.10
2019-03-23T04:41:29.497Z,183.10
2019-03-23T04:42:29.486Z,221.20
2019-03-23T04:43:29.480Z,176.10
2019-03-23T04:44:29.450Z,216.10
2019-03-23T04:45:29.438Z,166.50
2019-03-23T04:46:29.428Z,161.50
2019-03-23T04:47:29.420Z,189.30
2019-03-23T04:48:29.426Z,185.20
2019-03-23T04:49:29.398Z,129.30
2019-03-23T04:50:29.391Z,207.30
2019-03-23T04:51:29.372Z,165.60
2019-03-23T04:52:29.362Z,161.40
2019-03-23T04:53:29.374Z,187.90
2019-03-23T04:54:29.341Z,204.00
2019-03-23T04:55:29.329Z,229.30
2019-03-23T04:56:29.316Z,271.60
2019-03-23T04:57:29.306Z,190.30
2019-03-23T04:58:29.314Z,176.30
2019-03-23T04:59:29.286Z,217.50
2019-03-23T05:00:29.272Z,184.60
2019-03-23T05:01:29.280Z,380.00
2019-03-23T05:02:29.253Z,201.40
2019-03-23T05:03:29.261Z,187.90
2019-03-23T05:04:29.233Z,171.10
2019-03-23T05:05:29.234Z,216.00
2019-03-23T05:06:29.209Z,162.00
2019-03-23T05:07:29.193Z,148.00
2019-03-23T05:08:33.507Z,144.50
2019-03-23T05:09:29.168Z,159.00
2019-03-23T05:10:29.157Z,158.50
2019-03-23T05:11:29.150Z,127.80
2019-03-23T05:12:29.140Z,149.20
2019-03-23T05:13:29.122Z,143.30
2019-03-23T05:14:29.148Z,138.90
2019-03-23T05:15:29.112Z,266.90
2019-03-23T05:16:29.092Z,209.10
2019-03-23T05:17:29.083Z,128.90
2019-03-23T05:18:29.073Z,150.10
2019-03-23T05:19:29.081Z,135.60
2019-03-23T05:20:29.050Z,144.30
2019-03-23T05:21:29.048Z,182.50
2019-03-23T05:22:29.033Z,133.10
2019-03-23T05:23:29.019Z,110.80
2019-03-23T05:24:29.023Z,110.80
2019-03-23T05:25:28.992Z,186.20
2019-03-23T05:26:28.978Z,160.20
2019-03-23T05:27:28.968Z,144.40
2019-03-23T05:28:28.958Z,193.00
2019-03-23T05:29:28.967Z,163.50
2019-03-23T05:30:28.938Z,119.10
2019-03-23T05:31:28.934Z,110.90
2019-03-23T05:32:28.918Z,108.20
2019-03-23T05:33:28.904Z,146.30
2019-03-23T05:34:28.918Z,134.90
2019-03-23T05:35:28.883Z,156.70
2019-03-23T05:36:28.864Z,142.50
2019-03-23T05:37:28.854Z,138.40
2019-03-23T05:38:28.857Z,137.80
2019-03-23T05:39:28.859Z,125.30
2019-03-23T05:40:28.830Z,139.60
2019-03-23T05:41:30.876Z,164.10
2019-03-23T05:42:28.802Z,165.50
2019-03-23T05:43:28.790Z,132.40
2019-03-23T05:44:28.799Z,149.70
2019-03-23T05:45:28.772Z,146.90
2019-03-23T05:46:28.758Z,162.80
2019-03-23T05:47:28.744Z,143.30
2019-03-23T05:48:28.741Z,195.50
2019-03-23T05:49:28.746Z,204.30
2019-03-23T05:50:28.716Z,198.50
2019-03-23T05:51:28.700Z,195.90
2019-03-23T05:52:28.703Z,225.70
2019-03-23T05:53:28.672Z,161.90
2019-03-23T05:54:28.685Z,170.00
2019-03-23T05:55:28.655Z,119.70
2019-03-23T05:56:28.657Z,171.60
2019-03-23T05:57:28.634Z,162.90
2019-03-23T05:58:28.627Z,164.80
2019-03-23T05:59:28.643Z,159.90
2019-03-23T06:00:28.598Z,153.50
2019-03-23T06:01:28.584Z,117.00
2019-03-23T06:02:28.572Z,108.90
2019-03-23T06:03:28.566Z,137.70
2019-03-23T06:04:28.554Z,156.10
2019-03-23T06:05:28.568Z,107.20
2019-03-23T06:06:28.535Z,114.50
2019-03-23T06:07:28.524Z,148.40
2019-03-23T06:08:28.506Z,108.80
2019-03-23T06:09:28.496Z,130.00
2019-03-23T06:10:28.612Z,112.20
2019-03-23T06:11:28.474Z,94.80
2019-03-23T06:12:28.467Z,92.80
2019-03-23T06:13:28.461Z,132.20
2019-03-23T06:14:28.436Z,145.00
2019-03-23T06:15:28.444Z,104.20
2019-03-23T06:16:28.422Z,126.70
2019-03-23T06:17:28.406Z,116.90
2019-03-23T06:18:28.396Z,117.30
2019-03-23T06:19:28.396Z,110.90
2019-03-23T06:20:28.382Z,97.30
2019-03-23T06:21:28.364Z,102.40
2019-03-23T06:22:28.352Z,93.80
2019-03-23T06:23:28.340Z,77.90
2019-03-23T06:24:28.334Z,106.80
2019-03-23T06:25:28.338Z,92.70
2019-03-23T06:26:28.305Z,85.50
2019-03-23T06:27:28.298Z,73.40
2019-03-23T06:28:28.278Z,74.70
2019-03-23T06:29:28.276Z,73.00
2019-03-23T06:30:28.292Z,74.20
2019-03-23T06:31:28.248Z,54.80
2019-03-23T06:32:28.248Z,56.50
2019-03-23T06:33:28.222Z,61.50
2019-03-23T06:34:28.220Z,63.30
2019-03-23T06:35:28.226Z,52.10
2019-03-23T06:36:28.214Z,62.40
2019-03-23T06:37:28.182Z,55.80
2019-03-23T06:38:28.170Z,73.30
2019-03-23T06:39:28.172Z,110.30
2019-03-23T06:40:28.184Z,124.00
2019-03-23T06:41:28.136Z,62.60
2019-03-23T06:42:28.135Z,59.60
2019-03-23T06:43:28.113Z,79.00
2019-03-23T06:44:28.113Z,61.70
2019-03-23T06:45:28.119Z,96.70
2019-03-23T06:46:28.100Z,83.50
2019-03-23T06:47:28.085Z,65.40
2019-03-23T06:48:28.058Z,65.30
2019-03-23T06:49:28.069Z,98.00
2019-03-23T06:50:28.040Z,79.50
2019-03-23T06:51:28.065Z,89.50
2019-03-23T06:52:28.019Z,71.20
2019-03-23T06:53:28.004Z,73.70
2019-03-23T06:54:28.074Z,76.00
2019-03-23T06:55:28.007Z,64.40
2019-03-23T06:56:28.004Z,62.50
2019-03-23T06:57:27.960Z,65.20
2019-03-23T06:58:27.962Z,62.00
2019-03-23T06:59:28.005Z,60.80
2019-03-23T07:00:27.966Z,62.60
2019-03-23T07:01:27.931Z,60.90
2019-03-23T07:02:27.903Z,63.70
2019-03-23T07:03:27.904Z,65.30
2019-03-23T07:04:27.952Z,58.40
2019-03-23T07:05:27.862Z,64.80
2019-03-23T07:06:27.867Z,58.30
2019-03-23T07:07:27.853Z,68.10
2019-03-23T07:08:32.142Z,62.60
2019-03-23T07:09:27.830Z,58.10
2019-03-23T07:10:27.806Z,62.30
2019-03-23T07:11:27.898Z,57.10
2019-03-23T07:12:27.796Z,57.50
2019-03-23T07:13:27.794Z,54.00
2019-03-23T07:14:27.762Z,58.60
2019-03-23T07:15:27.750Z,63.60
2019-03-23T07:16:27.758Z,58.10
2019-03-23T07:17:27.728Z,58.20
2019-03-23T07:18:27.726Z,54.30
2019-03-23T07:19:27.703Z,55.20
2019-03-23T07:20:27.696Z,61.40
2019-03-23T07:21:27.702Z,54.20
2019-03-23T07:22:27.685Z,56.30
2019-03-23T07:23:27.664Z,55.30
2019-03-23T07:24:27.657Z,51.50
2019-03-23T07:25:27.636Z,53.60
2019-03-23T07:26:27.646Z,55.60
2019-03-23T07:27:27.620Z,57.70
2019-03-23T07:28:27.603Z,54.50
2019-03-23T07:29:27.607Z,54.20
2019-03-23T07:30:27.606Z,55.30
2019-03-23T07:31:27.605Z,56.60
2019-03-23T07:32:27.561Z,54.00
2019-03-23T07:33:27.550Z,55.70
2019-03-23T07:34:27.538Z,55.20
2019-03-23T07:35:27.543Z,52.50
2019-03-23T07:36:27.544Z,54.50
2019-03-23T07:37:27.508Z,54.70
2019-03-23T07:38:27.490Z,53.90
2019-03-23T07:39:30.361Z,53.80
2019-03-23T07:40:27.473Z,54.40
2019-03-23T07:41:27.487Z,54.40
2019-03-23T07:42:27.448Z,57.30
2019-03-23T07:43:27.436Z,54.20
2019-03-23T07:44:27.424Z,56.80
2019-03-23T07:45:27.415Z,55.40
2019-03-23T07:46:27.420Z,55.60
2019-03-23T07:47:27.403Z,53.60
2019-03-23T07:48:28.531Z,53.50
2019-03-23T07:49:27.373Z,54.20
2019-03-23T07:50:27.367Z,55.30
2019-03-23T07:51:27.375Z,54.60
2019-03-23T07:52:27.346Z,51.90
2019-03-23T07:53:27.322Z,53.80
2019-03-23T07:54:27.320Z,55.00
2019-03-23T07:55:27.302Z,51.60
2019-03-23T07:56:27.308Z,54.20
2019-03-23T07:57:27.278Z,49.30
2019-03-23T07:58:27.291Z,52.00
2019-03-23T07:59:27.254Z,52.40
2019-03-23T08:00:27.243Z,57.60
2019-03-23T08:01:27.255Z,56.20
2019-03-23T08:02:27.233Z,52.30
2019-03-23T08:03:27.267Z,54.30
2019-03-23T08:04:27.212Z,57.90
2019-03-23T08:05:27.193Z,60.30
2019-03-23T08:06:27.194Z,54.20
2019-03-23T08:07:27.166Z,57.60
2019-03-23T08:08:27.156Z,53.70
2019-03-23T08:09:37.155Z,55.80
2019-03-23T08:10:28.147Z,54.90
2019-03-23T08:11:27.139Z,51.70
2019-03-23T08:12:27.109Z,51.40
2019-03-23T08:13:27.688Z,51.60
2019-03-23T08:14:27.091Z,53.70
2019-03-23T08:15:27.086Z,55.80
2019-03-23T08:16:27.128Z,53.70
2019-03-23T08:17:27.057Z,53.10
2019-03-23T08:18:27.050Z,52.70
2019-03-23T08:19:27.039Z,53.70
2019-03-23T08:20:27.015Z,52.30
2019-03-23T08:21:27.027Z,51.30
2019-03-23T08:22:27.000Z,53.80
2019-03-23T08:23:26.990Z,55.10
2019-03-23T08:24:26.982Z,56.60
2019-03-23T08:25:26.973Z,55.60
2019-03-23T08:26:26.980Z,54.00
2019-03-23T08:27:26.969Z,55.10
2019-03-23T08:28:26.934Z,53.40
2019-03-23T08:29:26.914Z,54.50
2019-03-23T08:30:26.908Z,53.20
2019-03-23T08:31:26.893Z,52.30
2019-03-23T08:32:26.904Z,53.00
2019-03-23T08:33:26.874Z,53.90
2019-03-23T08:34:26.881Z,53.20
2019-03-23T08:35:26.849Z,54.00
2019-03-23T08:36:26.843Z,52.10
2019-03-23T08:37:26.851Z,56.20
2019-03-23T08:38:26.824Z,54.30
2019-03-23T08:39:26.812Z,54.10
2019-03-23T08:40:26.793Z,57.10
2019-03-23T08:41:26.798Z,56.00
2019-03-23T08:42:26.794Z,54.60
2019-03-23T08:43:26.759Z,54.80
2019-03-23T08:44:26.754Z,55.90
2019-03-23T08:45:26.734Z,53.90
2019-03-23T08:46:26.724Z,53.20
2019-03-23T08:47:26.736Z,53.20
2019-03-23T08:48:26.716Z,55.80
2019-03-23T08:49:28.598Z,55.50
2019-03-23T08:50:26.697Z,56.20
2019-03-23T08:51:26.723Z,52.60
2019-03-23T08:52:28.890Z,56.40
2019-03-23T08:53:26.649Z,55.30
2019-03-23T08:54:26.633Z,52.70
2019-03-23T08:55:26.630Z,53.60
2019-03-23T08:56:26.614Z,52.30
2019-03-23T08:57:26.638Z,54.40
2019-03-23T08:58:26.589Z,53.80
2019-03-23T08:59:26.578Z,56.90
2019-03-23T09:00:26.587Z,55.30
2019-03-23T09:01:26.562Z,55.40
2019-03-23T09:02:26.553Z,55.10
2019-03-23T09:03:26.550Z,53.40
2019-03-23T09:04:26.518Z,57.20
2019-03-23T09:05:26.510Z,56.30
2019-03-23T09:06:26.546Z,52.80
2019-03-23T09:07:26.497Z,54.20
2019-03-23T09:08:26.494Z,54.40
2019-03-23T09:09:26.489Z,56.50
2019-03-23T09:10:26.452Z,54.90
2019-03-23T09:11:26.437Z,54.20
2019-03-23T09:12:26.432Z,54.50
2019-03-23T09:13:26.441Z,56.30
2019-03-23T09:14:26.415Z,53.60
2019-03-23T09:15:26.391Z,56.10
2019-03-23T09:16:26.400Z,53.60
2019-03-23T09:17:26.371Z,55.70
2019-03-23T09:18:26.384Z,54.10
2019-03-23T09:19:26.351Z,53.50
2019-03-23T09:20:26.340Z,54.90
2019-03-23T09:21:26.325Z,53.90
2019-03-23T09:22:26.317Z,56.60
2019-03-23T09:23:26.326Z,54.90
2019-03-23T09:24:26.310Z,51.80
2019-03-23T09:25:26.282Z,51.60
2019-03-23T09:26:26.269Z,53.30
2019-03-23T09:27:26.258Z,53.80
2019-03-23T09:28:26.273Z,51.30
2019-03-23T09:29:26.239Z,51.80
2019-03-23T09:30:26.224Z,51.40
2019-03-23T09:31:26.210Z,50.10
2019-03-23T09:32:26.198Z,52.40
2019-03-23T09:33:26.230Z,51.10
2019-03-23T09:34:26.182Z,53.60
2019-03-23T09:35:26.176Z,49.80
2019-03-23T09:36:26.156Z,50.30
2019-03-23T09:37:26.150Z,53.70
2019-03-23T09:38:26.174Z,51.80
2019-03-23T09:39:26.122Z,53.60
2019-03-23T09:40:26.120Z,50.70
2019-03-23T09:41:26.112Z,52.30
2019-03-23T09:42:26.086Z,50.70
2019-03-23T09:43:26.099Z,51.50
2019-03-23T09:44:26.075Z,52.10
2019-03-23T09:45:26.055Z,52.00
2019-03-23T09:46:26.043Z,52.70
2019-03-23T09:47:26.038Z,52.30
2019-03-23T09:48:26.051Z,50.80
2019-03-23T09:49:26.022Z,49.90
2019-03-23T09:50:26.005Z,51.90
2019-03-23T09:51:26.221Z,51.30
2019-03-23T09:52:25.985Z,48.80
2019-03-23T09:53:25.968Z,51.60
2019-03-23T09:54:25.980Z,47.80
2019-03-23T09:55:25.951Z,48.30
2019-03-23T09:56:25.940Z,47.30
2019-03-23T09:57:25.921Z,50.20
2019-03-23T09:58:25.912Z,46.40
2019-03-23T09:59:25.921Z,46.40
2019-03-23T10:00:25.893Z,50.10
2019-03-23T10:01:25.900Z,44.80
2019-03-23T10:02:25.861Z,46.60
2019-03-23T10:03:25.857Z,46.10
2019-03-23T10:04:25.865Z,47.10
2019-03-23T10:05:25.830Z,44.40
2019-03-23T10:06:25.813Z,46.00
2019-03-23T10:07:25.809Z,47.30
2019-03-23T10:08:25.820Z,44.50
2019-03-23T10:09:25.832Z,46.90
2019-03-23T10:10:25.802Z,46.20
2019-03-23T10:11:25.761Z,46.90
2019-03-23T10:12:25.811Z,45.60
2019-03-23T10:13:25.748Z,47.50
2019-03-23T10:14:25.775Z,47.60
2019-03-23T10:15:25.734Z,47.80
2019-03-23T10:16:25.703Z,46.90
2019-03-23T10:17:25.690Z,48.30
2019-03-23T10:18:25.683Z,45.10
2019-03-23T10:19:25.694Z,45.40
2019-03-23T10:20:26.330Z,44.20
2019-03-23T10:21:25.767Z,44.50
2019-03-23T10:22:25.639Z,44.60
2019-03-23T10:23:25.628Z,43.30
2019-03-23T10:24:25.748Z,42.90
2019-03-23T10:25:25.600Z,42.80
2019-03-23T10:26:25.593Z,44.20
2019-03-23T10:27:25.597Z,42.00
2019-03-23T10:28:25.567Z,43.20
2019-03-23T10:29:25.558Z,41.40
2019-03-23T10:30:25.666Z,44.60
2019-03-23T10:31:25.532Z,43.60
2019-03-23T10:32:25.530Z,42.30
2019-03-23T10:33:25.652Z,43.50
2019-03-23T10:34:25.503Z,40.80
2019-03-23T10:35:25.522Z,42.60
2019-03-23T10:36:25.488Z,43.30
2019-03-23T10:37:26.138Z,41.10
2019-03-23T10:38:25.470Z,41.60
2019-03-23T10:39:25.476Z,40.90
2019-03-23T10:40:32.335Z,45.10
2019-03-23T10:41:26.423Z,41.70
2019-03-23T10:42:25.414Z,42.00
2019-03-23T10:43:25.408Z,39.80
2019-03-23T10:44:25.415Z,41.70
2019-03-23T10:45:25.589Z,43.00
2019-03-23T10:46:25.368Z,41.00
2019-03-23T10:47:25.452Z,41.00
2019-03-23T10:48:25.352Z,40.90
2019-03-23T10:49:25.352Z,41.40
2019-03-23T10:50:25.342Z,42.90
2019-03-23T10:51:25.408Z,43.70
2019-03-23T10:52:25.466Z,40.50
2019-03-23T10:53:25.294Z,40.20
2019-03-23T10:54:25.285Z,40.10
2019-03-23T10:55:25.273Z,40.10
2019-03-23T10:56:25.287Z,42.70
2019-03-23T10:57:25.251Z,37.50
2019-03-23T10:58:25.280Z,39.50
2019-03-23T10:59:25.238Z,37.90
2019-03-23T11:00:25.348Z,35.60
2019-03-23T11:01:25.225Z,38.10
2019-03-23T11:02:25.196Z,37.10
2019-03-23T11:03:25.196Z,39.50
2019-03-23T11:04:25.195Z,37.90
2019-03-23T11:05:25.170Z,38.50
2019-03-23T11:06:25.186Z,41.30
2019-03-23T11:07:25.156Z,39.80
2019-03-23T11:08:25.177Z,38.40
2019-03-23T11:09:25.123Z,35.40
2019-03-23T11:10:25.122Z,36.60
2019-03-23T11:11:25.131Z,38.80
2019-03-23T11:12:25.113Z,39.30
2019-03-23T11:13:25.084Z,40.30
2019-03-23T11:14:25.085Z,39.70
2019-03-23T11:15:25.068Z,38.70
2019-03-23T11:16:25.062Z,35.60
2019-03-23T11:17:25.196Z,38.10
2019-03-23T11:18:25.023Z,37.00
2019-03-23T11:19:25.026Z,36.40
2019-03-23T11:20:25.008Z,36.40
2019-03-23T11:21:25.016Z,41.30
2019-03-23T11:22:25.007Z,39.70
2019-03-23T11:23:24.992Z,39.10
2019-03-23T11:24:24.989Z,37.80
2019-03-23T11:25:24.989Z,39.40
2019-03-23T11:26:24.951Z,39.50
2019-03-23T11:27:24.953Z,38.80
2019-03-23T11:28:24.928Z,40.60
2019-03-23T11:29:24.940Z,39.00
2019-03-23T11:30:24.906Z,39.30
2019-03-23T11:31:24.899Z,37.80
2019-03-23T11:32:24.909Z,40.40
2019-03-23T11:33:24.872Z,39.30
2019-03-23T11:34:24.865Z,40.30
2019-03-23T11:35:24.862Z,42.80
2019-03-23T11:36:24.847Z,42.30
2019-03-23T11:37:24.896Z,43.10
2019-03-23T11:38:24.835Z,47.10
2019-03-23T11:39:24.803Z,43.20
2019-03-23T11:40:24.798Z,42.00
2019-03-23T11:41:24.800Z,42.40
2019-03-23T11:42:24.802Z,45.60
2019-03-23T11:43:24.794Z,42.60
2019-03-23T11:44:24.755Z,43.60
2019-03-23T11:45:24.747Z,43.00
2019-03-23T11:46:24.736Z,44.20
2019-03-23T11:47:24.752Z,42.40
2019-03-23T11:48:24.736Z,45.10
2019-03-23T11:49:24.718Z,46.00
2019-03-23T11:50:24.699Z,44.60
2019-03-23T11:51:24.681Z,44.80
2019-03-23T11:52:24.679Z,46.20
2019-03-23T11:53:24.683Z,45.00
2019-03-23T11:54:24.662Z,48.50
2019-03-23T11:55:24.651Z,45.90
2019-03-23T11:56:24.635Z,50.40
2019-03-23T11:57:24.628Z,49.50
2019-03-23T11:58:24.633Z,46.60
2019-03-23T11:59:24.613Z,49.80
2019-03-23T12:00:24.598Z,48.70
2019-03-23T12:01:24.596Z,50.20
2019-03-23T12:02:24.570Z,52.40
2019-03-23T12:03:24.583Z,51.00
2019-03-23T12:04:25.256Z,48.50
2019-03-23T12:05:24.551Z,49.50
2019-03-23T12:06:24.579Z,48.50
2019-03-23T12:07:24.560Z,47.80
2019-03-23T12:08:24.536Z,50.80
2019-03-23T12:09:24.518Z,49.90
2019-03-23T12:10:24.481Z,48.90
2019-03-23T12:11:25.005Z,49.90
2019-03-23T12:12:24.471Z,51.50
2019-03-23T12:13:24.476Z,50.90
2019-03-23T12:14:24.449Z,53.30
2019-03-23T12:15:24.431Z,51.40
2019-03-23T12:16:24.420Z,49.80
2019-03-23T12:17:24.428Z,55.50
2019-03-23T12:18:24.425Z,50.80
2019-03-23T12:19:24.408Z,50.90
2019-03-23T12:20:24.386Z,53.40
2019-03-23T12:21:24.378Z,51.00
2019-03-23T12:22:24.366Z,49.20
2019-03-23T12:23:24.743Z,51.00
2019-03-23T12:24:24.345Z,53.00
2019-03-23T12:25:24.340Z,52.10
2019-03-23T12:26:24.321Z,51.40
2019-03-23T12:27:24.823Z,49.70
2019-03-23T12:28:24.326Z,52.00
2019-03-23T12:29:24.300Z,49.50
2019-03-23T12:30:24.283Z,47.50
2019-03-23T12:31:25.157Z,49.00
2019-03-23T12:32:24.272Z,51.30
2019-03-23T12:33:24.285Z,52.20
2019-03-23T12:34:24.261Z,50.80
2019-03-23T12:35:24.229Z,49.90
2019-03-23T12:36:24.225Z,49.40
2019-03-23T12:37:24.220Z,51.10
2019-03-23T12:38:24.213Z,52.10
2019-03-23T12:39:24.228Z,50.50
2019-03-23T12:40:24.182Z,52.70
2019-03-23T12:41:24.172Z,51.50
2019-03-23T12:42:24.164Z,50.40
2019-03-23T12:43:24.165Z,50.60